sensor_id;sensor_type;location;lat;lon;timestamp;P1;durP1;ratioP1;P2;durP2;ratioP2
77384;SDS011;66443;49.122;8.346;2023-07-02T00:01:41;6.70;;;6.10;;
77384;SDS011;66443;49.122;8.346;2023-07-02T00:04:06;6.63;;;6.00;;
77384;SDS011;66443;49.122;8.346;2023-07-02T00:06:34;8.50;;;7.63;;
77384;SDS011;66443;49.122;8.346;2023-07-02T00:09:05;6.77;;;6.17;;
77384;SDS011;66443;49.122;8.346;2023-07-02T00:11:30;6.00;;;5.60;;
77384;SDS011;66443;49.122;8.346;2023-07-02T00:13:55;6.17;;;5.67;;
77384;SDS011;66443;49.122;8.346;2023-07-02T00:16:20;7.57;;;6.50;;
77384;SDS011;66443;49.122;8.346;2023-07-02T00:18:46;6.40;;;5.90;;
77384;SDS011;66443;49.122;8.346;2023-07-02T00:21:17;5.90;;;5.40;;
77384;SDS011;66443;49.122;8.346;2023-07-02T00:23:42;6.17;;;5.57;;
77384;SDS011;66443;49.122;8.346;2023-07-02T00:26:07;5.33;;;4.93;;
77384;SDS011;66443;49.122;8.346;2023-07-02T00:28:33;5.10;;;4.60;;
77384;SDS011;66443;49.122;8.346;2023-07-02T00:30:58;5.70;;;5.27;;
77384;SDS011;66443;49.122;8.346;2023-07-02T00:33:23;5.53;;;5.13;;
77384;SDS011;66443;49.122;8.346;2023-07-02T00:35:49;5.27;;;4.87;;
77384;SDS011;66443;49.122;8.346;2023-07-02T00:38:14;5.77;;;5.37;;
77384;SDS011;66443;49.122;8.346;2023-07-02T00:40:39;6.07;;;5.67;;
77384;SDS011;66443;49.122;8.346;2023-07-02T00:43:04;5.77;;;5.33;;
77384;SDS011;66443;49.122;8.346;2023-07-02T00:45:29;4.70;;;4.40;;
77384;SDS011;66443;49.122;8.346;2023-07-02T00:47:56;5.00;;;4.70;;
77384;SDS011;66443;49.122;8.346;2023-07-02T00:50:22;6.53;;;4.70;;
77384;SDS011;66443;49.122;8.346;2023-07-02T00:52:47;4.80;;;4.40;;
77384;SDS011;66443;49.122;8.346;2023-07-02T00:55:12;5.80;;;4.47;;
77384;SDS011;66443;49.122;8.346;2023-07-02T00:57:38;5.60;;;5.10;;
77384;SDS011;66443;49.122;8.346;2023-07-02T01:00:06;4.83;;;4.47;;
77384;SDS011;66443;49.122;8.346;2023-07-02T01:02:31;5.07;;;4.67;;
77384;SDS011;66443;49.122;8.346;2023-07-02T01:04:57;4.13;;;3.83;;
77384;SDS011;66443;49.122;8.346;2023-07-02T01:07:24;5.03;;;4.60;;
77384;SDS011;66443;49.122;8.346;2023-07-02T01:09:49;5.00;;;4.60;;
77384;SDS011;66443;49.122;8.346;2023-07-02T01:12:15;5.60;;;4.00;;
77384;SDS011;66443;49.122;8.346;2023-07-02T01:14:43;5.93;;;5.33;;
77384;SDS011;66443;49.122;8.346;2023-07-02T01:17:09;4.17;;;3.87;;
77384;SDS011;66443;49.122;8.346;2023-07-02T01:22:05;3.83;;;3.50;;
77384;SDS011;66443;49.122;8.346;2023-07-02T01:24:31;4.23;;;4.03;;
77384;SDS011;66443;49.122;8.346;2023-07-02T01:26:56;6.93;;;4.67;;
77384;SDS011;66443;49.122;8.346;2023-07-02T01:29:26;5.00;;;3.90;;
77384;SDS011;66443;49.122;8.346;2023-07-02T01:31:52;5.27;;;3.97;;
77384;SDS011;66443;49.122;8.346;2023-07-02T01:34:17;4.27;;;3.73;;
77384;SDS011;66443;49.122;8.346;2023-07-02T01:36:42;4.27;;;3.73;;
77384;SDS011;66443;49.122;8.346;2023-07-02T01:39:07;4.60;;;3.33;;
77384;SDS011;66443;49.122;8.346;2023-07-02T01:41:43;3.30;;;3.07;;
77384;SDS011;66443;49.122;8.346;2023-07-02T01:44:08;3.57;;;3.27;;
77384;SDS011;66443;49.122;8.346;2023-07-02T01:46:33;3.40;;;3.10;;
77384;SDS011;66443;49.122;8.346;2023-07-02T01:48:58;8.03;;;3.37;;
77384;SDS011;66443;49.122;8.346;2023-07-02T01:51:23;5.30;;;3.43;;
77384;SDS011;66443;49.122;8.346;2023-07-02T01:53:49;3.53;;;3.20;;
77384;SDS011;66443;49.122;8.346;2023-07-02T01:56:14;3.83;;;3.30;;
77384;SDS011;66443;49.122;8.346;2023-07-02T01:58:39;3.07;;;2.80;;
77384;SDS011;66443;49.122;8.346;2023-07-02T02:01:04;5.20;;;3.00;;
77384;SDS011;66443;49.122;8.346;2023-07-02T02:03:29;3.67;;;3.30;;
77384;SDS011;66443;49.122;8.346;2023-07-02T02:05:54;3.10;;;2.80;;
77384;SDS011;66443;49.122;8.346;2023-07-02T02:08:20;5.50;;;2.97;;
77384;SDS011;66443;49.122;8.346;2023-07-02T02:10:45;4.20;;;3.40;;
77384;SDS011;66443;49.122;8.346;2023-07-02T02:13:10;3.40;;;3.10;;
77384;SDS011;66443;49.122;8.346;2023-07-02T02:15:36;3.93;;;3.03;;
77384;SDS011;66443;49.122;8.346;2023-07-02T02:18:01;4.30;;;3.13;;
77384;SDS011;66443;49.122;8.346;2023-07-02T02:20:27;3.37;;;3.07;;
77384;SDS011;66443;49.122;8.346;2023-07-02T02:22:52;4.30;;;3.40;;
77384;SDS011;66443;49.122;8.346;2023-07-02T02:25:17;4.37;;;3.73;;
77384;SDS011;66443;49.122;8.346;2023-07-02T02:27:43;4.07;;;3.67;;
77384;SDS011;66443;49.122;8.346;2023-07-02T02:30:08;3.87;;;3.50;;
77384;SDS011;66443;49.122;8.346;2023-07-02T02:32:33;5.20;;;3.33;;
77384;SDS011;66443;49.122;8.346;2023-07-02T02:34:58;3.27;;;2.83;;
77384;SDS011;66443;49.122;8.346;2023-07-02T02:37:24;3.67;;;3.37;;
77384;SDS011;66443;49.122;8.346;2023-07-02T02:39:49;5.67;;;3.33;;
77384;SDS011;66443;49.122;8.346;2023-07-02T02:42:15;4.90;;;3.57;;
77384;SDS011;66443;49.122;8.346;2023-07-02T02:44:43;4.47;;;3.40;;
77384;SDS011;66443;49.122;8.346;2023-07-02T02:47:08;3.43;;;2.97;;
77384;SDS011;66443;49.122;8.346;2023-07-02T02:49:36;6.47;;;3.67;;
77384;SDS011;66443;49.122;8.346;2023-07-02T02:52:02;4.07;;;3.70;;
77384;SDS011;66443;49.122;8.346;2023-07-02T02:54:27;3.60;;;3.30;;
77384;SDS011;66443;49.122;8.346;2023-07-02T02:56:53;3.53;;;3.23;;
77384;SDS011;66443;49.122;8.346;2023-07-02T02:59:18;4.90;;;3.40;;
77384;SDS011;66443;49.122;8.346;2023-07-02T03:01:43;4.97;;;3.83;;
77384;SDS011;66443;49.122;8.346;2023-07-02T03:04:08;4.30;;;3.60;;
77384;SDS011;66443;49.122;8.346;2023-07-02T03:06:33;3.37;;;3.07;;
77384;SDS011;66443;49.122;8.346;2023-07-02T03:08:59;4.60;;;3.20;;
77384;SDS011;66443;49.122;8.346;2023-07-02T03:11:24;3.93;;;3.37;;
77384;SDS011;66443;49.122;8.346;2023-07-02T03:13:52;5.60;;;3.57;;
77384;SDS011;66443;49.122;8.346;2023-07-02T03:16:17;5.70;;;3.10;;
77384;SDS011;66443;49.122;8.346;2023-07-02T03:18:42;3.40;;;3.10;;
77384;SDS011;66443;49.122;8.346;2023-07-02T03:21:08;5.80;;;3.40;;
77384;SDS011;66443;49.122;8.346;2023-07-02T03:23:33;8.97;;;4.50;;
77384;SDS011;66443;49.122;8.346;2023-07-02T03:25:58;7.90;;;3.17;;
77384;SDS011;66443;49.122;8.346;2023-07-02T03:28:24;6.07;;;3.73;;
77384;SDS011;66443;49.122;8.346;2023-07-02T03:30:49;3.20;;;3.00;;
77384;SDS011;66443;49.122;8.346;2023-07-02T03:33:14;6.60;;;3.67;;
77384;SDS011;66443;49.122;8.346;2023-07-02T03:35:39;6.57;;;4.00;;
77384;SDS011;66443;49.122;8.346;2023-07-02T03:38:04;4.77;;;3.67;;
77384;SDS011;66443;49.122;8.346;2023-07-02T03:40:31;4.60;;;3.90;;
77384;SDS011;66443;49.122;8.346;2023-07-02T03:42:58;4.57;;;4.17;;
77384;SDS011;66443;49.122;8.346;2023-07-02T03:45:23;11.33;;;4.23;;
77384;SDS011;66443;49.122;8.346;2023-07-02T03:47:49;5.23;;;3.67;;
77384;SDS011;66443;49.122;8.346;2023-07-02T03:50:14;7.17;;;3.47;;
77384;SDS011;66443;49.122;8.346;2023-07-02T03:52:39;5.60;;;3.10;;
77384;SDS011;66443;49.122;8.346;2023-07-02T03:55:04;5.20;;;3.07;;
77384;SDS011;66443;49.122;8.346;2023-07-02T03:57:30;5.90;;;3.57;;
77384;SDS011;66443;49.122;8.346;2023-07-02T03:59:55;4.35;;;3.58;;
77384;SDS011;66443;49.122;8.346;2023-07-02T04:02:20;3.70;;;3.40;;
77384;SDS011;66443;49.122;8.346;2023-07-02T04:04:46;4.70;;;3.80;;
77384;SDS011;66443;49.122;8.346;2023-07-02T04:07:11;6.77;;;3.90;;
77384;SDS011;66443;49.122;8.346;2023-07-02T04:09:36;4.60;;;3.50;;
77384;SDS011;66443;49.122;8.346;2023-07-02T04:12:01;3.67;;;3.33;;
77384;SDS011;66443;49.122;8.346;2023-07-02T04:14:26;3.90;;;3.60;;
77384;SDS011;66443;49.122;8.346;2023-07-02T04:16:51;7.17;;;3.87;;
77384;SDS011;66443;49.122;8.346;2023-07-02T04:19:17;4.47;;;3.23;;
77384;SDS011;66443;49.122;8.346;2023-07-02T04:21:42;7.17;;;3.73;;
77384;SDS011;66443;49.122;8.346;2023-07-02T04:24:07;5.00;;;3.97;;
77384;SDS011;66443;49.122;8.346;2023-07-02T04:26:32;4.77;;;3.80;;
77384;SDS011;66443;49.122;8.346;2023-07-02T04:28:57;5.23;;;4.13;;
77384;SDS011;66443;49.122;8.346;2023-07-02T04:31:24;5.93;;;3.70;;
77384;SDS011;66443;49.122;8.346;2023-07-02T04:33:49;5.17;;;3.90;;
77384;SDS011;66443;49.122;8.346;2023-07-02T04:36:14;6.63;;;4.40;;
77384;SDS011;66443;49.122;8.346;2023-07-02T04:38:39;5.47;;;4.73;;
77384;SDS011;66443;49.122;8.346;2023-07-02T04:41:05;6.10;;;4.57;;
77384;SDS011;66443;49.122;8.346;2023-07-02T04:43:31;5.60;;;4.60;;
77384;SDS011;66443;49.122;8.346;2023-07-02T04:45:56;5.10;;;4.60;;
77384;SDS011;66443;49.122;8.346;2023-07-02T04:48:21;8.50;;;6.17;;
77384;SDS011;66443;49.122;8.346;2023-07-02T04:50:46;7.40;;;4.30;;
77384;SDS011;66443;49.122;8.346;2023-07-02T04:53:11;9.13;;;5.33;;
77384;SDS011;66443;49.122;8.346;2023-07-02T04:55:37;6.13;;;4.40;;
77384;SDS011;66443;49.122;8.346;2023-07-02T04:58:02;8.77;;;4.70;;
77384;SDS011;66443;49.122;8.346;2023-07-02T05:00:27;7.57;;;5.10;;
77384;SDS011;66443;49.122;8.346;2023-07-02T05:02:52;10.13;;;5.07;;
77384;SDS011;66443;49.122;8.346;2023-07-02T05:05:17;5.87;;;4.93;;
77384;SDS011;66443;49.122;8.346;2023-07-02T05:07:43;8.90;;;5.40;;
77384;SDS011;66443;49.122;8.346;2023-07-02T05:10:08;8.80;;;4.83;;
77384;SDS011;66443;49.122;8.346;2023-07-02T05:12:33;8.27;;;4.93;;
77384;SDS011;66443;49.122;8.346;2023-07-02T05:14:59;10.53;;;5.40;;
77384;SDS011;66443;49.122;8.346;2023-07-02T05:17:24;5.27;;;4.63;;
77384;SDS011;66443;49.122;8.346;2023-07-02T05:19:49;10.83;;;5.30;;
77384;SDS011;66443;49.122;8.346;2023-07-02T05:22:14;7.77;;;4.80;;
77384;SDS011;66443;49.122;8.346;2023-07-02T05:24:40;8.00;;;5.53;;
77384;SDS011;66443;49.122;8.346;2023-07-02T05:27:06;6.27;;;4.90;;
77384;SDS011;66443;49.122;8.346;2023-07-02T05:29:31;5.60;;;5.07;;
77384;SDS011;66443;49.122;8.346;2023-07-02T05:31:56;7.10;;;5.17;;
77384;SDS011;66443;49.122;8.346;2023-07-02T05:34:21;6.23;;;5.63;;
77384;SDS011;66443;49.122;8.346;2023-07-02T05:36:46;10.57;;;5.40;;
77384;SDS011;66443;49.122;8.346;2023-07-02T05:39:13;8.13;;;5.93;;
77384;SDS011;66443;49.122;8.346;2023-07-02T05:41:38;9.70;;;5.80;;
77384;SDS011;66443;49.122;8.346;2023-07-02T05:44:03;7.97;;;6.10;;
77384;SDS011;66443;49.122;8.346;2023-07-02T05:46:28;7.50;;;5.53;;
77384;SDS011;66443;49.122;8.346;2023-07-02T05:48:53;8.33;;;6.03;;
77384;SDS011;66443;49.122;8.346;2023-07-02T05:51:22;8.97;;;6.47;;
77384;SDS011;66443;49.122;8.346;2023-07-02T05:53:49;7.83;;;6.43;;
77384;SDS011;66443;49.122;8.346;2023-07-02T05:56:14;7.97;;;6.93;;
77384;SDS011;66443;49.122;8.346;2023-07-02T05:58:39;9.03;;;6.90;;
77384;SDS011;66443;49.122;8.346;2023-07-02T06:01:05;8.70;;;6.80;;
77384;SDS011;66443;49.122;8.346;2023-07-02T06:03:31;14.67;;;7.47;;
77384;SDS011;66443;49.122;8.346;2023-07-02T06:05:56;8.27;;;6.33;;
77384;SDS011;66443;49.122;8.346;2023-07-02T06:08:21;7.57;;;5.87;;
77384;SDS011;66443;49.122;8.346;2023-07-02T06:10:46;7.07;;;5.90;;
77384;SDS011;66443;49.122;8.346;2023-07-02T06:13:12;6.33;;;5.73;;
77384;SDS011;66443;49.122;8.346;2023-07-02T06:15:37;6.40;;;5.40;;
77384;SDS011;66443;49.122;8.346;2023-07-02T06:18:03;9.13;;;5.50;;
77384;SDS011;66443;49.122;8.346;2023-07-02T06:20:28;5.67;;;5.17;;
77384;SDS011;66443;49.122;8.346;2023-07-02T06:22:53;6.20;;;5.03;;
77384;SDS011;66443;49.122;8.346;2023-07-02T06:25:18;9.00;;;4.90;;
77384;SDS011;66443;49.122;8.346;2023-07-02T06:27:43;5.57;;;4.60;;
77384;SDS011;66443;49.122;8.346;2023-07-02T06:30:09;7.07;;;4.93;;
77384;SDS011;66443;49.122;8.346;2023-07-02T06:32:34;5.20;;;4.53;;
77384;SDS011;66443;49.122;8.346;2023-07-02T06:34:59;5.93;;;5.23;;
77384;SDS011;66443;49.122;8.346;2023-07-02T06:37:24;6.63;;;5.30;;
77384;SDS011;66443;49.122;8.346;2023-07-02T06:39:50;10.50;;;5.47;;
77384;SDS011;66443;49.122;8.346;2023-07-02T06:42:15;10.97;;;6.00;;
77384;SDS011;66443;49.122;8.346;2023-07-02T06:44:40;7.00;;;5.80;;
77384;SDS011;66443;49.122;8.346;2023-07-02T06:47:06;7.90;;;6.00;;
77384;SDS011;66443;49.122;8.346;2023-07-02T06:49:31;11.13;;;5.90;;
77384;SDS011;66443;49.122;8.346;2023-07-02T06:51:56;9.57;;;6.27;;
77384;SDS011;66443;49.122;8.346;2023-07-02T06:54:21;9.73;;;6.53;;
77384;SDS011;66443;49.122;8.346;2023-07-02T06:56:46;7.00;;;6.30;;
77384;SDS011;66443;49.122;8.346;2023-07-02T06:59:12;9.57;;;7.00;;
77384;SDS011;66443;49.122;8.346;2023-07-02T07:01:37;9.93;;;6.63;;
77384;SDS011;66443;49.122;8.346;2023-07-02T07:04:02;8.27;;;7.47;;
77384;SDS011;66443;49.122;8.346;2023-07-02T07:06:28;9.80;;;8.00;;
77384;SDS011;66443;49.122;8.346;2023-07-02T07:08:53;8.93;;;7.87;;
77384;SDS011;66443;49.122;8.346;2023-07-02T07:11:18;11.43;;;8.80;;
77384;SDS011;66443;49.122;8.346;2023-07-02T07:13:44;10.70;;;8.23;;
77384;SDS011;66443;49.122;8.346;2023-07-02T07:16:09;11.13;;;8.13;;
77384;SDS011;66443;49.122;8.346;2023-07-02T07:18:34;10.60;;;8.90;;
77384;SDS011;66443;49.122;8.346;2023-07-02T07:20:59;10.83;;;9.13;;
77384;SDS011;66443;49.122;8.346;2023-07-02T07:23:25;11.87;;;9.17;;
77384;SDS011;66443;49.122;8.346;2023-07-02T07:25:50;12.90;;;9.77;;
77384;SDS011;66443;49.122;8.346;2023-07-02T07:28:15;12.33;;;8.83;;
77384;SDS011;66443;49.122;8.346;2023-07-02T07:30:42;11.33;;;9.33;;
77384;SDS011;66443;49.122;8.346;2023-07-02T07:33:07;13.73;;;9.73;;
77384;SDS011;66443;49.122;8.346;2023-07-02T07:35:32;11.17;;;9.03;;
77384;SDS011;66443;49.122;8.346;2023-07-02T07:37:58;13.70;;;9.63;;
77384;SDS011;66443;49.122;8.346;2023-07-02T07:40:23;11.17;;;10.07;;
77384;SDS011;66443;49.122;8.346;2023-07-02T07:42:48;12.80;;;9.83;;
77384;SDS011;66443;49.122;8.346;2023-07-02T07:45:13;11.63;;;10.17;;
77384;SDS011;66443;49.122;8.346;2023-07-02T07:47:39;14.13;;;11.43;;
77384;SDS011;66443;49.122;8.346;2023-07-02T07:50:04;11.80;;;10.50;;
77384;SDS011;66443;49.122;8.346;2023-07-02T07:52:35;14.10;;;11.07;;
77384;SDS011;66443;49.122;8.346;2023-07-02T07:55:01;14.63;;;10.73;;
77384;SDS011;66443;49.122;8.346;2023-07-02T07:57:26;17.50;;;11.83;;
77384;SDS011;66443;49.122;8.346;2023-07-02T07:59:51;15.27;;;11.60;;
77384;SDS011;66443;49.122;8.346;2023-07-02T08:02:20;16.07;;;12.37;;
77384;SDS011;66443;49.122;8.346;2023-07-02T08:04:47;14.13;;;11.33;;
77384;SDS011;66443;49.122;8.346;2023-07-02T08:07:13;16.17;;;13.10;;
77384;SDS011;66443;49.122;8.346;2023-07-02T08:09:38;18.23;;;12.20;;
77384;SDS011;66443;49.122;8.346;2023-07-02T08:12:04;14.37;;;12.97;;
77384;SDS011;66443;49.122;8.346;2023-07-02T08:14:29;15.23;;;12.67;;
77384;SDS011;66443;49.122;8.346;2023-07-02T08:16:54;17.97;;;13.17;;
77384;SDS011;66443;49.122;8.346;2023-07-02T08:19:19;16.40;;;12.97;;
77384;SDS011;66443;49.122;8.346;2023-07-02T08:21:46;16.13;;;12.77;;
77384;SDS011;66443;49.122;8.346;2023-07-02T08:24:11;20.13;;;13.13;;
77384;SDS011;66443;49.122;8.346;2023-07-02T08:26:37;17.60;;;14.00;;
77384;SDS011;66443;49.122;8.346;2023-07-02T08:29:03;19.57;;;14.73;;
77384;SDS011;66443;49.122;8.346;2023-07-02T08:31:31;19.67;;;14.03;;
77384;SDS011;66443;49.122;8.346;2023-07-02T08:33:56;22.23;;;15.23;;
77384;SDS011;66443;49.122;8.346;2023-07-02T08:36:22;21.53;;;14.47;;
77384;SDS011;66443;49.122;8.346;2023-07-02T08:38:47;15.93;;;14.33;;
77384;SDS011;66443;49.122;8.346;2023-07-02T08:41:12;22.03;;;15.20;;
77384;SDS011;66443;49.122;8.346;2023-07-02T08:43:37;16.33;;;14.37;;
77384;SDS011;66443;49.122;8.346;2023-07-02T08:46:03;16.43;;;14.73;;
77384;SDS011;66443;49.122;8.346;2023-07-02T08:48:29;17.10;;;15.00;;
77384;SDS011;66443;49.122;8.346;2023-07-02T08:50:55;22.77;;;15.33;;
77384;SDS011;66443;49.122;8.346;2023-07-02T08:53:20;19.00;;;15.20;;
77384;SDS011;66443;49.122;8.346;2023-07-02T08:55:50;18.90;;;15.47;;
77384;SDS011;66443;49.122;8.346;2023-07-02T08:58:15;20.83;;;15.63;;
77384;SDS011;66443;49.122;8.346;2023-07-02T09:00:52;15.90;;;13.63;;
77384;SDS011;66443;49.122;8.346;2023-07-02T09:03:26;17.47;;;14.23;;
77384;SDS011;66443;49.122;8.346;2023-07-02T09:05:51;17.33;;;15.30;;
77384;SDS011;66443;49.122;8.346;2023-07-02T09:08:26;20.83;;;15.87;;
77384;SDS011;66443;49.122;8.346;2023-07-02T09:10:52;18.57;;;14.60;;
77384;SDS011;66443;49.122;8.346;2023-07-02T09:13:17;20.92;;;15.35;;
77384;SDS011;66443;49.122;8.346;2023-07-02T09:15:46;22.53;;;15.53;;
77384;SDS011;66443;49.122;8.346;2023-07-02T09:18:17;21.50;;;15.40;;
77384;SDS011;66443;49.122;8.346;2023-07-02T09:20:43;21.20;;;15.33;;
77384;SDS011;66443;49.122;8.346;2023-07-02T09:23:08;16.47;;;14.77;;
77384;SDS011;66443;49.122;8.346;2023-07-02T09:25:37;16.08;;;14.40;;
77384;SDS011;66443;49.122;8.346;2023-07-02T09:28:13;16.53;;;14.27;;
77384;SDS011;66443;49.122;8.346;2023-07-02T09:30:48;17.47;;;14.27;;
77384;SDS011;66443;49.122;8.346;2023-07-02T09:33:15;23.13;;;15.17;;
77384;SDS011;66443;49.122;8.346;2023-07-02T09:35:40;16.83;;;14.77;;
77384;SDS011;66443;49.122;8.346;2023-07-02T09:38:05;19.30;;;15.63;;
77384;SDS011;66443;49.122;8.346;2023-07-02T09:40:31;17.67;;;13.85;;
77384;SDS011;66443;49.122;8.346;2023-07-02T09:42:56;19.77;;;16.25;;
77384;SDS011;66443;49.122;8.346;2023-07-02T09:45:22;18.52;;;13.98;;
77384;SDS011;66443;49.122;8.346;2023-07-02T09:47:47;16.23;;;13.43;;
77384;SDS011;66443;49.122;8.346;2023-07-02T09:50:14;15.73;;;13.95;;
77384;SDS011;66443;49.122;8.346;2023-07-02T09:52:40;17.00;;;14.55;;
77384;SDS011;66443;49.122;8.346;2023-07-02T09:55:06;19.00;;;15.43;;
77384;SDS011;66443;49.122;8.346;2023-07-02T09:57:34;16.13;;;13.52;;
77384;SDS011;66443;49.122;8.346;2023-07-02T10:00:00;15.25;;;13.55;;
77384;SDS011;66443;49.122;8.346;2023-07-02T10:02:25;16.90;;;13.75;;
77384;SDS011;66443;49.122;8.346;2023-07-02T10:04:51;22.00;;;14.90;;
77384;SDS011;66443;49.122;8.346;2023-07-02T10:07:29;16.25;;;14.55;;
77384;SDS011;66443;49.122;8.346;2023-07-02T10:09:55;15.30;;;13.70;;
77384;SDS011;66443;49.122;8.346;2023-07-02T10:12:24;18.05;;;14.95;;
77384;SDS011;66443;49.122;8.346;2023-07-02T10:14:50;22.30;;;14.80;;
77384;SDS011;66443;49.122;8.346;2023-07-02T10:17:28;19.50;;;15.18;;
77384;SDS011;66443;49.122;8.346;2023-07-02T10:19:54;21.10;;;15.20;;
77384;SDS011;66443;49.122;8.346;2023-07-02T10:22:20;20.03;;;14.57;;
77384;SDS011;66443;49.122;8.346;2023-07-02T10:24:52;20.10;;;14.70;;
77384;SDS011;66443;49.122;8.346;2023-07-02T10:27:18;17.15;;;14.15;;
77384;SDS011;66443;49.122;8.346;2023-07-02T10:29:49;19.30;;;14.43;;
77384;SDS011;66443;49.122;8.346;2023-07-02T10:32:14;20.83;;;15.10;;
77384;SDS011;66443;49.122;8.346;2023-07-02T10:34:50;17.95;;;15.35;;
77384;SDS011;66443;49.122;8.346;2023-07-02T10:37:15;19.92;;;13.88;;
77384;SDS011;66443;49.122;8.346;2023-07-02T10:39:41;16.55;;;14.75;;
77384;SDS011;66443;49.122;8.346;2023-07-02T10:42:09;16.80;;;15.05;;
77384;SDS011;66443;49.122;8.346;2023-07-02T10:44:39;16.67;;;14.38;;
77384;SDS011;66443;49.122;8.346;2023-07-02T10:47:11;20.77;;;14.75;;
77384;SDS011;66443;49.122;8.346;2023-07-02T10:49:36;20.40;;;15.57;;
77384;SDS011;66443;49.122;8.346;2023-07-02T10:52:04;17.13;;;15.43;;
77384;SDS011;66443;49.122;8.346;2023-07-02T10:54:42;17.75;;;15.73;;
77384;SDS011;66443;49.122;8.346;2023-07-02T10:57:13;17.35;;;14.32;;
77384;SDS011;66443;49.122;8.346;2023-07-02T10:59:39;18.48;;;14.77;;
77384;SDS011;66443;49.122;8.346;2023-07-02T11:02:04;21.67;;;15.85;;
77384;SDS011;66443;49.122;8.346;2023-07-02T11:04:30;19.10;;;14.57;;
77384;SDS011;66443;49.122;8.346;2023-07-02T11:06:59;18.38;;;14.20;;
77384;SDS011;66443;49.122;8.346;2023-07-02T11:09:24;20.63;;;14.45;;
77384;SDS011;66443;49.122;8.346;2023-07-02T11:11:54;17.02;;;14.63;;
77384;SDS011;66443;49.122;8.346;2023-07-02T11:14:26;18.23;;;14.70;;
77384;SDS011;66443;49.122;8.346;2023-07-02T11:16:53;18.42;;;14.75;;
77384;SDS011;66443;49.122;8.346;2023-07-02T11:19:19;20.23;;;14.60;;
77384;SDS011;66443;49.122;8.346;2023-07-02T11:21:50;20.25;;;15.48;;
77384;SDS011;66443;49.122;8.346;2023-07-02T11:24:15;16.83;;;14.82;;
77384;SDS011;66443;49.122;8.346;2023-07-02T11:26:41;24.23;;;15.43;;
77384;SDS011;66443;49.122;8.346;2023-07-02T11:29:12;16.80;;;15.02;;
77384;SDS011;66443;49.122;8.346;2023-07-02T11:31:42;23.85;;;15.85;;
77384;SDS011;66443;49.122;8.346;2023-07-02T11:34:11;19.52;;;14.95;;
77384;SDS011;66443;49.122;8.346;2023-07-02T11:36:37;17.88;;;15.23;;
77384;SDS011;66443;49.122;8.346;2023-07-02T11:39:04;19.60;;;14.20;;
77384;SDS011;66443;49.122;8.346;2023-07-02T11:41:39;20.20;;;15.13;;
77384;SDS011;66443;49.122;8.346;2023-07-02T11:44:05;19.17;;;14.13;;
77384;SDS011;66443;49.122;8.346;2023-07-02T11:46:30;16.58;;;14.88;;
77384;SDS011;66443;49.122;8.346;2023-07-02T11:48:55;18.05;;;15.23;;
77384;SDS011;66443;49.122;8.346;2023-07-02T11:51:21;18.50;;;14.25;;
77384;SDS011;66443;49.122;8.346;2023-07-02T11:53:46;16.02;;;13.90;;
77384;SDS011;66443;49.122;8.346;2023-07-02T11:56:11;16.92;;;15.25;;
77384;SDS011;66443;49.122;8.346;2023-07-02T11:58:38;16.83;;;14.80;;
77384;SDS011;66443;49.122;8.346;2023-07-02T12:01:04;16.50;;;14.63;;
77384;SDS011;66443;49.122;8.346;2023-07-02T12:03:29;19.70;;;14.57;;
77384;SDS011;66443;49.122;8.346;2023-07-02T12:05:55;19.75;;;15.48;;
77384;SDS011;66443;49.122;8.346;2023-07-02T12:08:20;19.25;;;15.23;;
77384;SDS011;66443;49.122;8.346;2023-07-02T12:10:46;18.88;;;15.23;;
77384;SDS011;66443;49.122;8.346;2023-07-02T12:13:13;16.73;;;15.02;;
77384;SDS011;66443;49.122;8.346;2023-07-02T12:15:38;18.33;;;14.52;;
77384;SDS011;66443;49.122;8.346;2023-07-02T12:18:04;17.70;;;14.73;;
77384;SDS011;66443;49.122;8.346;2023-07-02T12:20:29;17.90;;;15.45;;
77384;SDS011;66443;49.122;8.346;2023-07-02T12:22:55;18.00;;;14.73;;
77384;SDS011;66443;49.122;8.346;2023-07-02T12:25:20;17.70;;;14.23;;
77384;SDS011;66443;49.122;8.346;2023-07-02T12:27:46;15.27;;;13.63;;
77384;SDS011;66443;49.122;8.346;2023-07-02T12:30:11;15.50;;;14.00;;
77384;SDS011;66443;49.122;8.346;2023-07-02T12:32:38;18.08;;;14.80;;
77384;SDS011;66443;49.122;8.346;2023-07-02T12:35:03;16.65;;;14.15;;
77384;SDS011;66443;49.122;8.346;2023-07-02T12:37:28;26.33;;;15.77;;
77384;SDS011;66443;49.122;8.346;2023-07-02T12:39:54;18.13;;;14.07;;
77384;SDS011;66443;49.122;8.346;2023-07-02T12:42:19;18.15;;;15.07;;
77384;SDS011;66443;49.122;8.346;2023-07-02T12:44:44;25.52;;;16.50;;
77384;SDS011;66443;49.122;8.346;2023-07-02T12:47:10;19.60;;;14.57;;
77384;SDS011;66443;49.122;8.346;2023-07-02T12:49:35;15.88;;;14.25;;
77384;SDS011;66443;49.122;8.346;2023-07-02T12:52:00;17.10;;;15.32;;
77384;SDS011;66443;49.122;8.346;2023-07-02T12:54:25;16.00;;;14.37;;
77384;SDS011;66443;49.122;8.346;2023-07-02T12:56:51;16.17;;;14.60;;
77384;SDS011;66443;49.122;8.346;2023-07-02T12:59:16;16.55;;;14.70;;
77384;SDS011;66443;49.122;8.346;2023-07-02T13:01:44;16.63;;;14.32;;
77384;SDS011;66443;49.122;8.346;2023-07-02T13:04:10;17.02;;;14.65;;
77384;SDS011;66443;49.122;8.346;2023-07-02T13:06:35;19.90;;;15.23;;
77384;SDS011;66443;49.122;8.346;2023-07-02T13:09:06;15.88;;;14.25;;
77384;SDS011;66443;49.122;8.346;2023-07-02T13:11:31;15.63;;;13.80;;
77384;SDS011;66443;49.122;8.346;2023-07-02T13:13:57;15.38;;;13.88;;
77384;SDS011;66443;49.122;8.346;2023-07-02T13:16:22;16.25;;;14.73;;
77384;SDS011;66443;49.122;8.346;2023-07-02T13:18:48;16.25;;;14.52;;
77384;SDS011;66443;49.122;8.346;2023-07-02T13:21:14;17.93;;;15.63;;
77384;SDS011;66443;49.122;8.346;2023-07-02T13:23:39;23.15;;;15.80;;
77384;SDS011;66443;49.122;8.346;2023-07-02T13:26:07;15.45;;;14.13;;
77384;SDS011;66443;49.122;8.346;2023-07-02T13:28:32;15.85;;;14.30;;
77384;SDS011;66443;49.122;8.346;2023-07-02T13:30:57;16.45;;;14.75;;
77384;SDS011;66443;49.122;8.346;2023-07-02T13:33:23;14.98;;;13.50;;
77384;SDS011;66443;49.122;8.346;2023-07-02T13:35:48;16.30;;;14.70;;
77384;SDS011;66443;49.122;8.346;2023-07-02T13:38:14;15.45;;;13.88;;
77384;SDS011;66443;49.122;8.346;2023-07-02T13:40:39;16.00;;;14.55;;
77384;SDS011;66443;49.122;8.346;2023-07-02T13:43:05;14.40;;;13.07;;
77384;SDS011;66443;49.122;8.346;2023-07-02T13:45:30;14.82;;;13.52;;
77384;SDS011;66443;49.122;8.346;2023-07-02T13:47:56;14.10;;;12.80;;
77384;SDS011;66443;49.122;8.346;2023-07-02T13:50:21;15.32;;;13.75;;
77384;SDS011;66443;49.122;8.346;2023-07-02T13:52:46;15.07;;;13.77;;
77384;SDS011;66443;49.122;8.346;2023-07-02T13:55:12;15.20;;;12.95;;
77384;SDS011;66443;49.122;8.346;2023-07-02T13:57:37;15.85;;;13.85;;
77384;SDS011;66443;49.122;8.346;2023-07-02T14:00:03;13.98;;;12.55;;
77384;SDS011;66443;49.122;8.346;2023-07-02T14:02:32;14.10;;;12.73;;
77384;SDS011;66443;49.122;8.346;2023-07-02T14:04:58;13.48;;;12.40;;
77384;SDS011;66443;49.122;8.346;2023-07-02T14:07:23;13.05;;;11.88;;
77384;SDS011;66443;49.122;8.346;2023-07-02T14:09:48;13.18;;;12.07;;
77384;SDS011;66443;49.122;8.346;2023-07-02T14:12:14;15.43;;;13.82;;
77384;SDS011;66443;49.122;8.346;2023-07-02T14:14:39;14.65;;;13.30;;
77384;SDS011;66443;49.122;8.346;2023-07-02T14:17:05;14.93;;;13.67;;
77384;SDS011;66443;49.122;8.346;2023-07-02T14:19:30;13.40;;;12.20;;
77384;SDS011;66443;49.122;8.346;2023-07-02T14:21:55;13.15;;;11.93;;
77384;SDS011;66443;49.122;8.346;2023-07-02T14:24:21;13.48;;;11.95;;
77384;SDS011;66443;49.122;8.346;2023-07-02T14:26:46;13.13;;;11.93;;
77384;SDS011;66443;49.122;8.346;2023-07-02T14:29:11;13.43;;;12.33;;